createdAt,value
2018-11-10T00:01:25.465Z,11.65
2018-11-10T00:03:59.890Z,11.61
2018-11-10T00:06:33.308Z,11.59
2018-11-10T00:09:04.503Z,11.55
2018-11-10T00:11:50.091Z,11.53
2018-11-10T00:17:06.809Z,11.46
2018-11-10T00:19:42.929Z,11.45
2018-11-10T00:22:18.270Z,11.43
2018-11-10T00:24:49.700Z,11.40
2018-11-10T00:27:34.905Z,11.37
2018-11-10T00:30:09.769Z,11.32
2018-11-10T00:32:43.067Z,11.27
2018-11-10T00:35:13.310Z,11.29
2018-11-10T00:37:48.105Z,11.27
2018-11-10T00:43:04.437Z,11.26
2018-11-10T00:45:52.037Z,11.26
2018-11-10T00:48:22.674Z,11.23
2018-11-10T00:50:54.511Z,11.23
2018-11-10T00:53:25.402Z,11.21
2018-11-10T00:55:58.981Z,11.15
2018-11-10T00:58:28.884Z,11.09
2018-11-10T01:00:59.422Z,11.06
2018-11-10T01:03:30.637Z,10.98
2018-11-10T01:06:00.276Z,10.98
2018-11-10T01:08:37.565Z,10.97
2018-11-10T01:11:07.339Z,10.99
2018-11-10T01:13:38.179Z,10.97
2018-11-10T01:16:08.074Z,10.98
2018-11-10T01:18:37.864Z,10.98
2018-11-10T01:21:08.291Z,10.96
2018-11-10T01:23:49.751Z,10.94
2018-11-10T01:26:23.861Z,10.79
2018-11-10T01:29:01.147Z,10.73
2018-11-10T01:31:32.755Z,10.72
2018-11-10T01:34:29.521Z,10.72
2018-11-10T01:37:02.299Z,10.73
2018-11-10T01:39:33.779Z,10.76
2018-11-10T01:42:08.979Z,10.77
2018-11-10T01:44:39.398Z,10.76
2018-11-10T01:47:20.317Z,10.76
2018-11-10T01:49:59.225Z,10.69
2018-11-10T01:55:43.612Z,10.63
2018-11-10T01:58:15.085Z,10.65
2018-11-10T02:00:44.858Z,10.63
2018-11-10T02:16:34.884Z,10.51
2018-11-10T02:19:08.752Z,10.50
2018-11-10T02:21:42.146Z,10.51
2018-11-10T02:24:12.614Z,10.51
2018-11-10T02:26:43.229Z,10.50
2018-11-10T02:29:15.768Z,10.43
2018-11-10T02:31:49.582Z,10.43
2018-11-10T02:34:20.338Z,10.40
2018-11-10T02:36:50.141Z,10.37
2018-11-10T02:39:19.799Z,10.36
2018-11-10T02:41:50.946Z,10.35
2018-11-10T02:44:21.108Z,10.37
2018-11-10T02:46:52.749Z,10.37
2018-11-10T02:49:25.501Z,10.39
2018-11-10T02:51:56.299Z,10.37
2018-11-10T02:54:27.130Z,10.37
2018-11-10T02:57:10.706Z,10.37
2018-11-10T03:00:08.366Z,10.37
2018-11-10T03:02:37.977Z,10.33
2018-11-10T03:05:09.996Z,10.32
2018-11-10T03:07:41.996Z,10.26
2018-11-10T03:10:26.451Z,10.23
2018-11-10T03:12:59.402Z,10.17
2018-11-10T03:15:28.934Z,10.15
2018-11-10T03:17:58.537Z,10.13
2018-11-10T03:20:28.132Z,10.14
2018-11-10T03:23:11.652Z,10.16
2018-11-10T03:25:46.589Z,10.16
2018-11-10T03:28:30.027Z,10.17
2018-11-10T03:31:04.000Z,10.18
2018-11-10T03:33:36.010Z,10.17
2018-11-10T03:36:08.690Z,10.18
2018-11-10T03:38:44.362Z,10.20
2018-11-10T03:41:15.258Z,10.20
2018-11-10T03:43:56.310Z,10.19
2018-11-10T03:46:27.181Z,10.25
2018-11-10T03:48:59.692Z,10.30
2018-11-10T03:51:30.189Z,10.33
2018-11-10T03:54:01.533Z,10.29
2018-11-10T03:56:37.024Z,10.24
2018-11-10T03:59:07.027Z,10.18
2018-11-10T04:01:37.789Z,10.14
2018-11-10T04:04:22.021Z,10.17
2018-11-10T04:06:58.524Z,10.15
2018-11-10T04:09:28.208Z,10.17
2018-11-10T04:11:57.773Z,10.21
2018-11-10T04:14:27.667Z,10.22
2018-11-10T04:17:00.669Z,10.23
2018-11-10T04:19:32.361Z,10.23
2018-11-10T04:22:02.658Z,10.26
2018-11-10T04:24:33.055Z,10.25
2018-11-10T04:27:05.575Z,10.24
2018-11-10T04:29:36.034Z,10.25
2018-11-10T04:32:14.499Z,10.24
2018-11-10T04:35:00.742Z,10.20
2018-11-10T04:37:30.453Z,10.15
2018-11-10T04:40:01.095Z,10.15
2018-11-10T04:47:30.619Z,9.92
2018-11-10T04:50:03.196Z,9.92
2018-11-10T04:52:36.762Z,9.96
2018-11-10T04:55:08.041Z,9.97
2018-11-10T04:57:39.564Z,10.01
2018-11-10T05:00:23.127Z,10.03
2018-11-10T05:02:55.918Z,10.03
2018-11-10T05:05:27.669Z,10.03
2018-11-10T05:07:58.075Z,10.04
2018-11-10T05:10:30.013Z,10.07
2018-11-10T05:13:04.196Z,10.09
2018-11-10T05:15:43.592Z,10.10
2018-11-10T05:18:17.805Z,10.09
2018-11-10T05:20:48.209Z,10.11
2018-11-10T05:23:20.347Z,10.08
2018-11-10T05:26:10.981Z,10.04
2018-11-10T05:28:43.999Z,10.01
2018-11-10T05:31:13.972Z,10.00
2018-11-10T05:33:46.386Z,10.01
2018-11-10T05:36:18.544Z,10.01
2018-11-10T05:38:48.862Z,10.00
2018-11-10T05:41:19.184Z,10.03
2018-11-10T05:45:03.257Z,10.00
2018-11-10T05:47:34.425Z,9.87
2018-11-10T05:50:07.999Z,9.90
2018-11-10T05:52:39.121Z,9.92
2018-11-10T06:19:52.563Z,9.91
2018-11-10T06:22:23.076Z,9.96
2018-11-10T06:24:56.144Z,9.99
2018-11-10T06:27:26.002Z,10.04
2018-11-10T06:33:00.430Z,10.10
2018-11-10T06:35:32.811Z,10.12
2018-11-10T06:38:04.455Z,10.17
2018-11-10T06:40:36.739Z,10.24
2018-11-10T06:43:06.513Z,10.25
2018-11-10T06:45:48.352Z,10.27
2018-11-10T06:48:24.131Z,10.30
2018-11-10T06:50:54.521Z,10.33
2018-11-10T06:53:26.262Z,10.37
2018-11-10T06:55:57.565Z,10.40
2018-11-10T06:59:03.356Z,10.44
2018-11-10T07:01:33.179Z,10.43
2018-11-10T07:04:05.441Z,10.47
2018-11-10T07:06:36.054Z,10.50
2018-11-10T07:09:08.753Z,10.51
2018-11-10T07:11:40.184Z,10.52
2018-11-10T07:14:10.486Z,10.53
2018-11-10T07:16:40.750Z,10.57
2018-11-10T07:19:12.989Z,10.61
2018-11-10T07:21:46.472Z,10.64
2018-11-10T07:24:21.939Z,10.67
2018-11-10T07:26:59.323Z,10.74
2018-11-10T07:29:33.042Z,10.80
2018-11-10T07:32:03.322Z,10.88
2018-11-10T07:34:33.317Z,10.94
2018-11-10T07:37:27.151Z,11.00
2018-11-10T07:40:04.831Z,11.06
2018-11-10T07:42:51.928Z,11.15
2018-11-10T07:45:37.119Z,11.22
2018-11-10T07:51:05.023Z,11.27
2018-11-10T07:53:43.375Z,11.33
2018-11-10T07:56:14.457Z,11.42
2018-11-10T07:58:45.727Z,11.51
2018-11-10T08:01:19.085Z,11.59
2018-11-10T08:03:55.387Z,11.68
2018-11-10T08:06:27.127Z,11.72
2018-11-10T08:09:01.496Z,11.77
2018-11-10T08:11:36.300Z,11.82
2018-11-10T08:14:11.509Z,11.88
2018-11-10T08:16:41.063Z,11.93
2018-11-10T08:19:10.786Z,11.96
2018-11-10T08:21:41.806Z,12.08
2018-11-10T08:24:12.397Z,12.19
2018-11-10T08:26:44.257Z,12.22
2018-11-10T08:29:15.322Z,12.22
2018-11-10T08:31:46.006Z,12.32
2018-11-10T08:34:23.423Z,12.38
2018-11-10T08:36:53.315Z,12.37
2018-11-10T08:39:23.837Z,12.44
2018-11-10T08:41:55.722Z,12.47
2018-11-10T08:44:58.100Z,12.62
2018-11-10T08:47:41.722Z,12.70
2018-11-10T08:50:15.202Z,12.84
2018-11-10T08:52:46.461Z,12.90
2018-11-10T08:55:17.113Z,12.97
2018-11-10T08:57:49.383Z,13.05
2018-11-10T09:00:19.414Z,13.09
2018-11-10T09:02:50.516Z,13.17
2018-11-10T09:05:32.677Z,13.27
2018-11-10T09:08:04.840Z,13.32
2018-11-10T09:10:40.954Z,13.35
2018-11-10T09:13:12.999Z,13.51
2018-11-10T09:15:43.674Z,13.58
2018-11-10T09:18:15.719Z,13.81
2018-11-10T09:20:47.674Z,14.18
2018-11-10T09:23:18.707Z,14.23
2018-11-10T09:25:48.419Z,14.32
2018-11-10T09:28:19.241Z,14.43
2018-11-10T09:30:53.921Z,14.44
2018-11-10T09:33:24.654Z,14.32
2018-11-10T09:35:56.904Z,14.34
2018-11-10T09:41:10.811Z,14.30
2018-11-10T09:43:43.077Z,14.29
2018-11-10T09:46:17.483Z,14.27
2018-11-10T09:48:57.785Z,14.27
2018-11-10T09:51:31.528Z,14.34
2018-11-10T09:54:04.838Z,14.43
2018-11-10T10:01:36.088Z,14.60
2018-11-10T10:04:08.998Z,14.71
2018-11-10T10:06:41.700Z,14.82
2018-11-10T10:09:13.084Z,14.88
2018-11-10T10:11:43.660Z,14.91
2018-11-10T10:14:20.320Z,14.96
2018-11-10T10:16:51.488Z,15.04
2018-11-10T10:19:30.094Z,15.07
2018-11-10T10:22:04.780Z,15.15
2018-11-10T10:24:39.790Z,15.19
2018-11-10T10:27:12.364Z,15.29
2018-11-10T10:29:48.914Z,15.38
2018-11-10T10:32:26.664Z,15.51
2018-11-10T10:34:57.915Z,15.68
2018-11-10T10:37:31.919Z,15.83
2018-11-10T10:40:12.764Z,16.08
2018-11-10T10:42:47.028Z,16.07
2018-11-10T10:45:24.093Z,16.00
2018-11-10T10:51:34.407Z,16.00
2018-11-10T10:54:26.441Z,16.16
2018-11-10T10:57:09.428Z,16.57
2018-11-10T10:59:43.500Z,16.74
2018-11-10T11:02:26.417Z,16.62
2018-11-10T11:05:12.332Z,16.68
2018-11-10T11:07:47.281Z,16.69
2018-11-10T11:10:28.939Z,16.65
2018-11-10T11:13:07.271Z,16.58
2018-11-10T11:15:41.118Z,16.60
2018-11-10T11:18:11.591Z,16.64
2018-11-10T11:20:51.334Z,16.66
2018-11-10T11:23:23.977Z,16.74
2018-11-10T11:29:08.152Z,16.84
2018-11-10T11:34:30.259Z,16.79
2018-11-10T11:37:05.660Z,16.90
2018-11-10T11:39:48.371Z,16.95
2018-11-10T11:42:30.601Z,16.95
2018-11-10T11:45:07.815Z,17.03
2018-11-10T11:47:40.635Z,17.18
2018-11-10T11:50:18.072Z,17.23
2018-11-10T11:52:58.729Z,17.24
2018-11-10T11:55:43.560Z,17.27
2018-11-10T11:58:26.202Z,17.33
2018-11-10T12:01:19.019Z,17.25
2018-11-10T12:03:54.710Z,17.11
2018-11-10T12:06:46.933Z,17.09
2018-11-10T12:09:32.921Z,17.03
2018-11-10T12:12:23.552Z,16.96
2018-11-10T12:15:07.955Z,16.97
2018-11-10T12:17:55.294Z,17.01
2018-11-10T12:20:35.735Z,17.07
2018-11-10T12:23:08.324Z,17.03
2018-11-10T12:25:42.256Z,17.17
2018-11-10T12:28:40.294Z,17.29
2018-11-10T12:31:18.018Z,17.22
2018-11-10T12:33:49.747Z,17.17
2018-11-10T12:36:32.424Z,17.26
2018-11-10T12:39:10.159Z,17.32
2018-11-10T12:41:51.066Z,17.40
2018-11-10T12:44:45.526Z,17.37
2018-11-10T12:49:57.951Z,17.29
2018-11-10T12:52:28.505Z,17.35
2018-11-10T12:55:01.641Z,17.36
2018-11-10T12:57:43.184Z,17.31
2018-11-10T13:00:35.258Z,17.33
2018-11-10T13:03:07.018Z,17.38
2018-11-10T13:05:41.340Z,17.28
2018-11-10T13:08:14.933Z,17.27
2018-11-10T13:10:54.366Z,17.21
2018-11-10T13:13:26.281Z,17.12
2018-11-10T13:16:00.201Z,17.16
2018-11-10T13:18:34.216Z,17.23
2018-11-10T13:21:14.437Z,17.22
2018-11-10T13:23:49.341Z,17.21
2018-11-10T13:26:23.427Z,17.21
2018-11-10T13:29:15.021Z,17.18
2018-11-10T13:31:48.671Z,17.09
2018-11-10T13:34:22.791Z,17.08
2018-11-10T13:36:53.878Z,17.07
2018-11-10T13:39:23.677Z,17.08
2018-11-10T13:41:56.676Z,17.05
2018-11-10T13:47:12.473Z,17.08
2018-11-10T13:49:44.777Z,17.11
2018-11-10T13:52:18.405Z,17.11
2018-11-10T13:54:49.880Z,17.08
2018-11-10T13:57:21.290Z,17.04
2018-11-10T14:00:49.441Z,17.06
2018-11-10T14:06:37.115Z,16.93
2018-11-10T14:09:11.523Z,16.90
2018-11-10T14:11:43.710Z,16.90
2018-11-10T14:14:24.680Z,16.91
2018-11-10T14:16:59.542Z,16.89
2018-11-10T14:19:59.570Z,16.82
2018-11-10T14:25:53.102Z,16.69
2018-11-10T14:28:37.058Z,16.71
2018-11-10T14:31:10.639Z,16.68
2018-11-10T14:36:58.530Z,16.64
2018-11-10T14:39:33.876Z,16.64
2018-11-10T14:42:15.021Z,16.61
2018-11-10T14:45:29.880Z,16.56
2018-11-10T14:48:12.408Z,16.52
2018-11-10T14:53:32.607Z,16.50
2018-11-10T14:56:07.536Z,16.49
2018-11-10T14:58:48.520Z,16.49
2018-11-10T15:01:23.760Z,16.49
2018-11-10T15:03:56.402Z,16.48
2018-11-10T15:06:26.362Z,16.46
2018-11-10T15:08:57.514Z,16.42
2018-11-10T15:11:33.137Z,16.38
2018-11-10T15:14:04.651Z,16.37
2018-11-10T15:16:38.249Z,16.32
2018-11-10T15:19:20.992Z,16.28
2018-11-10T15:21:52.324Z,16.21
2018-11-10T15:24:25.350Z,16.16
2018-11-10T15:26:57.709Z,16.15
2018-11-10T15:29:27.147Z,16.13
2018-11-10T15:31:56.690Z,16.11
2018-11-10T15:34:28.483Z,16.08
2018-11-10T15:37:01.547Z,16.06
2018-11-10T15:39:33.184Z,16.04
2018-11-10T15:42:03.115Z,16.00
2018-11-10T15:44:37.005Z,15.97
2018-11-10T15:47:07.914Z,15.95
2018-11-10T15:49:48.529Z,15.89
2018-11-10T15:52:24.192Z,15.85
2018-11-10T15:55:06.427Z,15.81
2018-11-10T15:57:39.053Z,15.74
2018-11-10T16:00:23.994Z,15.73
2018-11-10T16:03:11.892Z,15.68
2018-11-10T16:05:46.347Z,15.63
2018-11-10T16:08:18.264Z,15.61
2018-11-10T16:11:01.279Z,15.58
2018-11-10T16:13:32.137Z,15.57
2018-11-10T16:16:18.637Z,15.57
2018-11-10T16:18:59.558Z,15.51
2018-11-10T16:21:35.303Z,15.45
2018-11-10T16:24:11.765Z,15.44
2018-11-10T16:26:44.114Z,15.42
2018-11-10T16:29:15.222Z,15.37
2018-11-10T16:31:48.912Z,15.30
2018-11-10T16:34:30.110Z,15.22
2018-11-10T16:37:00.663Z,15.19
2018-11-10T16:39:35.674Z,15.15
2018-11-10T16:42:15.945Z,15.13
2018-11-10T16:44:49.821Z,15.14
2018-11-10T16:47:26.641Z,15.14
2018-11-10T16:50:04.012Z,15.08
2018-11-10T16:52:44.374Z,15.08
2018-11-10T16:55:22.362Z,15.10
2018-11-10T16:57:58.868Z,15.07
2018-11-10T17:00:30.762Z,15.05
2018-11-10T17:03:19.481Z,15.04
2018-11-10T17:06:02.308Z,14.99
2018-11-10T17:08:41.494Z,14.93
2018-11-10T17:11:16.172Z,14.88
2018-11-10T17:14:05.590Z,14.88
2018-11-10T17:16:49.580Z,14.84
2018-11-10T17:19:20.597Z,14.80
2018-11-10T17:21:56.940Z,14.78
2018-11-10T17:24:27.537Z,14.74
2018-11-10T17:26:59.271Z,14.71
2018-11-10T17:32:42.921Z,14.56
2018-11-10T17:35:21.044Z,14.44
2018-11-10T17:37:50.761Z,14.40
2018-11-10T17:40:21.220Z,14.37
2018-11-10T17:42:53.394Z,14.37
2018-11-10T17:45:23.356Z,14.31
2018-11-10T17:47:56.297Z,14.30
2018-11-10T17:50:26.754Z,14.27
2018-11-10T17:52:59.020Z,14.24
2018-11-10T17:55:32.660Z,14.21
2018-11-10T17:58:08.799Z,14.19
2018-11-10T18:00:45.876Z,14.15
2018-11-10T18:03:22.056Z,14.13
2018-11-10T18:05:59.749Z,14.08
2018-11-10T18:08:45.617Z,14.04
2018-11-10T18:16:28.656Z,13.74
2018-11-10T18:18:58.801Z,13.76
2018-11-10T18:21:42.236Z,13.82
2018-11-10T18:24:16.867Z,13.78
2018-11-10T18:26:49.627Z,13.76
2018-11-10T18:29:22.748Z,13.74
2018-11-10T18:31:58.233Z,13.72
2018-11-10T18:34:33.016Z,13.73
2018-11-10T18:37:07.216Z,13.72
2018-11-10T18:39:41.186Z,13.72
2018-11-10T18:42:15.372Z,13.72
2018-11-10T18:44:50.906Z,13.73
2018-11-10T18:47:25.002Z,13.73
2018-11-10T18:49:55.831Z,13.72
2018-11-10T18:52:32.005Z,13.71
2018-11-10T18:55:04.374Z,13.69
2018-11-10T18:57:52.254Z,13.70
2018-11-10T19:00:23.546Z,13.68
2018-11-10T19:02:54.177Z,13.64
2018-11-10T19:05:29.257Z,13.64
2018-11-10T19:08:09.067Z,13.67
2018-11-10T19:10:39.009Z,13.67
2018-11-10T19:13:12.050Z,13.67
2018-11-10T19:18:54.307Z,13.58
2018-11-10T19:24:55.883Z,13.50
2018-11-10T19:27:29.696Z,13.45
2018-11-10T19:30:32.919Z,13.42
2018-11-10T19:36:34.786Z,13.33
2018-11-10T19:39:54.161Z,13.33
2018-11-10T19:45:29.149Z,13.38
2018-11-10T19:48:17.870Z,13.43
2018-11-10T19:53:33.096Z,13.42
2018-11-10T19:56:29.766Z,13.45
2018-11-10T19:59:12.082Z,13.46
2018-11-10T20:01:57.340Z,13.46
2018-11-10T20:04:36.236Z,13.44
2018-11-10T20:07:22.724Z,13.45
2018-11-10T20:09:55.428Z,13.42
2018-11-10T20:12:45.072Z,13.44
2018-11-10T20:15:19.552Z,13.46
2018-11-10T20:18:02.671Z,13.47
2018-11-10T20:20:33.713Z,13.43
2018-11-10T20:23:04.805Z,13.38
2018-11-10T20:25:34.742Z,13.38
2018-11-10T20:28:06.564Z,13.38
2018-11-10T20:30:38.389Z,13.37
2018-11-10T20:33:12.747Z,13.36
2018-11-10T20:38:36.996Z,13.34
2018-11-10T20:41:27.579Z,13.34
2018-11-10T20:44:00.017Z,13.35
2018-11-10T20:46:33.369Z,13.42
2018-11-10T20:49:04.076Z,13.41
2018-11-10T20:51:34.887Z,13.34
2018-11-10T20:54:06.785Z,13.33
2018-11-10T20:56:37.714Z,13.33
2018-11-10T20:59:22.987Z,13.32
2018-11-10T21:01:54.814Z,13.24
2018-11-10T21:04:24.224Z,13.15
2018-11-10T21:06:55.033Z,13.12
2018-11-10T21:09:27.259Z,13.06
2018-11-10T21:11:58.459Z,13.01
2018-11-10T21:14:30.435Z,13.01
2018-11-10T21:17:01.767Z,12.99
2018-11-10T21:19:34.145Z,12.96
2018-11-10T21:22:05.551Z,12.94
2018-11-10T21:24:35.562Z,12.91
2018-11-10T21:27:09.802Z,12.90
2018-11-10T21:29:40.565Z,12.91
2018-11-10T21:32:11.115Z,12.87
2018-11-10T21:34:41.802Z,12.81
2018-11-10T21:37:11.872Z,12.78
2018-11-10T21:39:47.751Z,12.76
2018-11-10T21:42:18.628Z,12.77
2018-11-10T21:44:50.265Z,12.74
2018-11-10T21:47:19.950Z,12.74
2018-11-10T21:49:49.416Z,12.76
2018-11-10T21:52:20.606Z,12.77
2018-11-10T21:54:52.370Z,12.79
2018-11-10T21:57:24.098Z,12.81
2018-11-10T21:59:59.532Z,12.80
2018-11-10T22:02:29.084Z,12.77
2018-11-10T22:05:01.096Z,12.76
2018-11-10T22:07:30.581Z,12.75
2018-11-10T22:10:03.772Z,12.73
2018-11-10T22:12:41.673Z,12.72
2018-11-10T22:15:21.686Z,12.67
2018-11-10T22:17:52.916Z,12.57
2018-11-10T22:20:23.885Z,12.53
2018-11-10T22:22:53.576Z,12.51
2018-11-10T22:25:25.907Z,12.48
2018-11-10T22:27:57.583Z,12.44
2018-11-10T22:30:28.276Z,12.44
2018-11-10T22:32:58.912Z,12.44
2018-11-10T22:35:34.209Z,12.43
2018-11-10T22:38:04.057Z,12.40
2018-11-10T22:40:36.502Z,12.38
2018-11-10T22:43:06.450Z,12.37
2018-11-10T22:45:38.890Z,12.34
2018-11-10T22:48:25.016Z,12.32
2018-11-10T22:50:54.605Z,12.30
2018-11-10T22:53:40.346Z,12.28
2018-11-10T22:56:10.823Z,12.25
2018-11-10T22:58:41.665Z,12.24
2018-11-10T23:03:59.107Z,12.21
2018-11-10T23:06:33.447Z,12.19
2018-11-10T23:09:07.114Z,12.18
2018-11-10T23:11:37.188Z,12.22
2018-11-10T23:14:08.093Z,12.24
2018-11-10T23:16:38.536Z,12.25
2018-11-10T23:19:10.927Z,12.23
2018-11-10T23:21:40.514Z,12.18
2018-11-10T23:24:10.070Z,12.12
2018-11-10T23:26:44.762Z,12.08
2018-11-10T23:29:22.570Z,12.02
2018-11-10T23:34:34.253Z,12.03
2018-11-10T23:37:07.338Z,12.12
2018-11-10T23:39:37.539Z,12.13
2018-11-10T23:42:12.700Z,12.12
2018-11-10T23:44:43.233Z,12.14
2018-11-10T23:47:14.495Z,12.17
2018-11-10T23:49:46.007Z,12.15
2018-11-10T23:52:16.081Z,12.07
2018-11-10T23:54:46.105Z,12.02
2018-11-10T23:57:21.195Z,11.98
2018-11-10T23:59:52.008Z,11.89
